Terminal Aerodrome Forecast
Issued by NWS Binghamton, NY

Home | Current Version | Previous Version | Text Only | Print | Product List | Glossary On
Versions: 1 2 3 4 5 6 7 8 9 10 11 12 13 14 15 16 17
000
FTUS41 KBGM 291120
TAFAVP
TAF
KAVP 291120Z 2912/3012 22006KT P6SM FEW200
     FM291600 22010G17KT P6SM FEW080
     FM292300 20008KT P6SM BKN080=

USA.gov is the U.S. government's official web portal to all federal, state and local government web resources and services.